Flight Track Log - Related Links

Times and Time Zones

All times are in EDT time to prevent confusion due to time zone crossing. See the N173DS flight status page for this flight to view local times or setup timezone preferences in your user account.

Time Position Orientation Groundspeed Altitude Reporting Facility
EDT Latitude Longitude Course Direction KTS MPH feet Rate Location/Type
Sun 04:58:08 PM 41.9456 -72.7022 265° West 162 186 1,300  Level Boston Center
Sun 04:58:38 PM 41.9436 -72.7325 265° West 179 206 2,600 3,297 Climbing Boston Center
Sun 04:59:39 PM 41.9392 -72.8083 266° West 203 234 6,300 3,984 Climbing Boston Center
Sun 05:00:40 PM 41.9328 -72.8986 265° West 221 254 10,700 4,328 Climbing Boston Center
Sun 05:01:41 PM 41.9283 -72.9814 266° West 221 254 15,100 3,744 Climbing Boston Center
Sun 05:02:45 PM 41.9239 -73.0769 266° West 257 296 18,500 2,064 Climbing Boston Center
Sun 05:03:46 PM 41.9158 -73.1806 264° West 317 365 19,400 744 Climbing Boston Center
Sun 05:04:46 PM 41.8939 -73.3267 259° West 392 451 20,000 1,220 Climbing Boston Center
Sun 05:05:49 PM 41.8328 -73.4603 238° Southwest 421 484 21,900 1,016 Climbing Boston Center
Sun 05:06:50 PM 41.7569 -73.5778 229° Southwest 428 493 22,100 1,736 Climbing Boston Center
Sun 05:07:50 PM 41.6114 -73.5969 186° South 439 505 25,400 2,661 Climbing Boston Center
Sun 05:08:54 PM 41.4983 -73.6064 184° South 457 526 27,600 1,887 Climbing Boston Center
Sun 05:09:54 PM 41.3792 -73.7239 217° Southwest 448 516 29,300 1,190 Climbing Boston Center
Sun 05:10:55 PM 41.2800 -73.8397 221° Southwest 472 543 30,000 416 Climbing Boston Center
Sun 05:11:35 PM 41.2175 -73.9156 222° Southwest 476 548 30,000 240 Level New York Center
Sun 05:12:35 PM 41.1106 -74.0261 218° Southwest 487 560 30,400 950 Climbing New York Center
Sun 05:13:35 PM 40.9972 -74.1306 215° Southwest 500 575 31,900 2,100 Climbing New York Center
Sun 05:14:35 PM 40.9125 -74.2500 227° Southwest 476 548 34,600 2,250 Climbing New York Center
Sun 05:15:35 PM 40.8319 -74.3667 228° Southwest 457 526 36,400 1,500 Climbing New York Center
Sun 05:16:35 PM 40.7508 -74.4911 229° Southwest 451 519 37,600 1,200 Climbing New York Center
Sun 05:17:35 PM 40.6678 -74.6122 228° Southwest 451 519 38,800 1,150 Climbing New York Center
Sun 05:18:35 PM 40.5806 -74.7331 226° Southwest 451 519 39,900 600 Climbing New York Center
Sun 05:19:35 PM 40.4950 -74.8592 228° Southwest 451 519 40,000 50 Climbing New York Center
Sun 05:20:35 PM 40.4050 -74.9900 228° Southwest 464 534 40,000  Level New York Center
Sun 05:21:35 PM 40.3125 -75.1206 227° Southwest 485 558 40,000  Level New York Center
Sun 05:22:35 PM 40.2222 -75.2508 228° Southwest 485 558 40,000  Level New York Center
Sun 05:23:35 PM 40.1319 -75.3808 228° Southwest 485 558 40,000  Level New York Center
Sun 05:24:35 PM 40.0306 -75.5178 226° Southwest 485 558 40,000  Level New York Center
Sun 05:25:35 PM 39.9442 -75.6419 228° Southwest 485 558 40,000  Level New York Center
Sun 05:26:35 PM 39.8617 -75.7686 230° Southwest 474 545 40,000  Level New York Center
Sun 05:27:35 PM 39.7811 -75.8953 230° Southwest 469 540 40,000  Level New York Center
Sun 05:28:35 PM 39.7006 -76.0244 231° Southwest 462 532 40,000  Level New York Center
Sun 05:30:25 PM 39.5533 -76.2536 230° Southwest 460 529 40,000  Level Washington Center
Sun 05:31:23 PM 39.4756 -76.3767 231° Southwest 460 529 40,000  Level Washington Center
Sun 05:32:24 PM 39.3956 -76.5047 231° Southwest 460 529 40,000  Level Washington Center
Sun 05:33:24 PM 39.3175 -76.6164 228° Southwest 460 529 40,000  Level Washington Center
Sun 05:34:23 PM 39.2372 -76.7411 230° Southwest 455 524 40,000  Level Washington Center
Sun 05:35:24 PM 39.1547 -76.8683 230° Southwest 460 529 40,000  Level Washington Center
Sun 05:36:24 PM 39.0719 -76.9953 230° Southwest 460 529 40,000  Level Washington Center
Sun 05:37:25 PM 38.9808 -77.1111 225° Southwest 465 535 40,000  Level Washington Center
Sun 05:38:22 PM 38.8794 -77.2183 219° Southwest 465 535 40,000  Level Washington Center
Sun 05:39:23 PM 38.7800 -77.3200 219° Southwest 470 541 40,000  Level Washington Center
Sun 05:40:24 PM 38.6678 -77.4342 218° Southwest 470 541 40,000  Level Washington Center
Sun 05:41:25 PM 38.5683 -77.5353 218° Southwest 470 541 40,000  Level Washington Center
Sun 05:42:23 PM 38.4686 -77.6389 219° Southwest 470 541 40,000  Level Washington Center
Sun 05:43:24 PM 38.3708 -77.7367 218° Southwest 464 534 40,000  Level Washington Center
Sun 05:44:24 PM 38.2689 -77.8397 218° Southwest 464 534 40,000  Level Washington Center
Sun 05:45:23 PM 38.1711 -77.9372 218° Southwest 464 534 40,000  Level Washington Center
Sun 05:46:24 PM 38.0692 -78.0394 218° Southwest 464 534 40,000  Level Washington Center
Sun 05:47:24 PM 37.9817 -78.1261 218° Southwest 464 534 40,000  Level Washington Center
Sun 05:48:25 PM 37.8817 -78.2253 218° Southwest 464 534 40,000  Level Washington Center
Sun 05:49:24 PM 37.7792 -78.3242 217° Southwest 464 534 40,000  Level Washington Center
Sun 05:50:25 PM 37.6767 -78.4256 218° Southwest 464 534 40,000  Level Washington Center
Sun 05:51:25 PM 37.5636 -78.5339 217° Southwest 469 540 40,000  Level Washington Center
Sun 05:52:23 PM 37.4739 -78.6222 218° Southwest 463 533 40,000  Level Washington Center
Sun 05:53:23 PM 37.3625 -78.7300 218° Southwest 457 526 40,000  Level Washington Center
Sun 05:54:25 PM 37.2706 -78.8178 217° Southwest 463 533 40,000  Level Washington Center
Sun 05:55:25 PM 37.1569 -78.9275 218° Southwest 470 541 40,000  Level Washington Center
Sun 05:56:23 PM 37.0542 -79.0244 217° Southwest 470 541 40,000  Level Washington Center
Sun 05:57:25 PM 36.9531 -79.1242 218° Southwest 470 541 40,000  Level Washington Center
Sun 05:58:25 PM 36.8500 -79.2206 217° Southwest 470 541 40,000  Level Washington Center
Sun 06:00:27 PM 36.6350 -79.4289 218° Southwest 504 580 40,000  Level Atlanta Center
Sun 06:01:27 PM 36.5303 -79.5278 217° Southwest 487 560 40,000  Level Atlanta Center
Sun 06:02:27 PM 36.4272 -79.6214 216° Southwest 477 549 40,000  Level Atlanta Center
Sun 06:03:27 PM 36.3203 -79.7225 217° Southwest 477 549 40,000  Level Atlanta Center
Sun 06:04:27 PM 36.2150 -79.8183 216° Southwest 482 555 40,000  Level Atlanta Center
Sun 06:05:27 PM 36.1122 -79.9161 218° Southwest 482 555 40,000  Level Atlanta Center
Sun 06:06:27 PM 36.0167 -79.9928 213° Southwest 477 549 40,000  Level Atlanta Center
Sun 06:07:27 PM 35.8933 -80.0528 202° Southwest 471 542 40,000  Level Atlanta Center
Sun 06:08:27 PM 35.7744 -80.1125 202° Southwest 470 541 40,000  Level Atlanta Center
Sun 06:09:27 PM 35.6533 -80.1744 203° Southwest 470 541 40,000 50 Level Atlanta Center
Sun 06:10:27 PM 35.5300 -80.2339 201° Southwest 470 541 40,100  Climbing Atlanta Center
Sun 06:11:27 PM 35.4150 -80.2953 204° Southwest 465 535 40,000 -50 Descending Atlanta Center
Sun 06:12:27 PM 35.2936 -80.3542 202° Southwest 465 535 40,000  Level Atlanta Center
Sun 06:14:12 PM 35.0731 -80.4603 201° Southwest 452 520 40,000  Level Jacksonville Center
Sun 06:15:12 PM 34.9553 -80.5194 202° Southwest 452 520 40,000  Level Jacksonville Center
Sun 06:16:12 PM 34.8394 -80.5783 203° Southwest 452 520 40,000  Level Jacksonville Center
Sun 06:17:12 PM 34.7361 -80.6342 204° Southwest 445 512 40,000  Level Jacksonville Center
Sun 06:18:12 PM 34.5997 -80.6956 200° South 467 537 40,000  Level Jacksonville Center
Sun 06:19:12 PM 34.4947 -80.7839 215° Southwest 462 532 40,000  Level Jacksonville Center
Sun 06:20:12 PM 34.3942 -80.8769 217° Southwest 467 537 40,000  Level Jacksonville Center
Sun 06:22:39 PM 34.1436 -81.1172 218° Southwest 481 554 40,000  Level Atlanta Center
Sun 06:23:39 PM 34.0414 -81.2161 219° Southwest 481 554 40,000  Level Atlanta Center
Sun 06:24:39 PM 33.9394 -81.3144 219° Southwest 481 554 40,000  Level Atlanta Center
Sun 06:25:39 PM 33.8350 -81.4128 218° Southwest 481 554 40,000  Level Atlanta Center
Sun 06:26:39 PM 33.7328 -81.5086 218° Southwest 481 554 40,000  Level Atlanta Center
Sun 06:27:39 PM 33.6303 -81.6039 218° Southwest 481 554 40,000  Level Atlanta Center
Sun 06:28:39 PM 33.5300 -81.7014 219° Southwest 481 554 40,000  Level Atlanta Center
Sun 06:29:39 PM 33.4253 -81.7961 217° Southwest 481 554 40,000  Level Atlanta Center
Sun 06:30:39 PM 33.3225 -81.8958 219° Southwest 481 554 40,000  Level Atlanta Center
Sun 06:31:39 PM 33.2178 -81.9928 218° Southwest 481 554 40,000  Level Atlanta Center
Sun 06:32:39 PM 33.1131 -82.0894 218° Southwest 481 554 40,000 50 Level Atlanta Center
Sun 06:33:39 PM 33.0058 -82.1861 217° Southwest 481 554 40,100 500 Climbing Atlanta Center
Sun 06:34:39 PM 32.9050 -82.2797 218° Southwest 481 554 41,000 450 Climbing Atlanta Center
Sun 06:35:39 PM 32.8061 -82.3706 218° Southwest 476 548 41,000  Level Atlanta Center
Sun 06:37:23 PM 32.6400 -82.5250 218° Southwest 479 551 41,000  Level Jacksonville Center
Sun 06:38:23 PM 32.5253 -82.5944 207° Southwest 463 533 41,000  Level Jacksonville Center
Sun 06:39:23 PM 32.3811 -82.5875 178° South 446 513 41,000  Level Jacksonville Center
Sun 06:40:23 PM 32.2475 -82.5733 175° South 463 533 41,000  Level Jacksonville Center
Sun 06:41:23 PM 32.1161 -82.5614 176° South 463 533 41,000  Level Jacksonville Center
Sun 06:42:24 PM 31.9844 -82.5497 176° South 473 544 41,000  Level Jacksonville Center
Sun 06:43:23 PM 31.8467 -82.5403 177° South 484 557 41,000  Level Jacksonville Center
Sun 06:44:24 PM 31.7400 -82.5286 175° South 484 557 41,000  Level Jacksonville Center
Sun 06:45:24 PM 31.5939 -82.5169 176° South 484 557 41,000  Level Jacksonville Center
Sun 06:46:23 PM 31.4581 -82.5078 177° South 484 557 41,000  Level Jacksonville Center
Sun 06:47:23 PM 31.3142 -82.5011 178° South 478 550 41,000  Level Jacksonville Center
Sun 06:48:24 PM 31.1825 -82.4919 177° South 478 550 41,000 -50 Level Jacksonville Center
Sun 06:49:24 PM 31.0508 -82.4803 176° South 478 550 40,900 -504 Descending Jacksonville Center
Sun 06:50:23 PM 30.9194 -82.4664 175° South 478 550 40,000 -1,109 Descending Jacksonville Center
Sun 06:51:23 PM 30.7897 -82.4572 177° South 478 550 38,700 -992 Descending Jacksonville Center
Sun 06:52:24 PM 30.6583 -82.4483 177° South 478 550 38,000 -350 Descending Jacksonville Center
Sun 06:53:23 PM 30.5267 -82.4344 175° South 478 550 38,000  Level Jacksonville Center
Sun 06:54:24 PM 30.3931 -82.4253 177° South 483 556 38,000 -198 Level Jacksonville Center
Sun 06:55:24 PM 30.2594 -82.4164 177° South 483 556 37,600 -1,311 Descending Jacksonville Center
Sun 06:56:23 PM 30.1278 -82.4050 176° South 477 549 35,400 -2,067 Descending Jacksonville Center
Sun 06:57:23 PM 30.0086 -82.3889 173° South 477 549 33,500 -2,050 Descending Jacksonville Center
Sun 06:58:23 PM 29.8625 -82.3778 176° South 477 549 31,300 -2,100 Descending Jacksonville Center
Sun 06:59:23 PM 29.7289 -82.3689 177° South 477 549 29,300 -2,050 Descending Jacksonville Center
Sun 07:00:23 PM 29.5953 -82.3600 177° South 482 555 27,200 -1,884 Descending Jacksonville Center
Sun 07:01:24 PM 29.4636 -82.3439 174° South 477 549 25,500 -1,900 Descending Jacksonville Center
Sun 07:02:23 PM 29.3447 -82.3303 174° South 463 533 23,400 -2,067 Descending Jacksonville Center
Sun 07:03:23 PM 29.2361 -82.3167 174° South 425 489 21,400 -1,983 Descending Jacksonville Center
Sun 07:04:24 PM 29.1294 -82.3056 175° South 403 464 19,400 -1,800 Descending Jacksonville Center
Sun 07:05:23 PM 29.0292 -82.2917 173° South 380 437 17,800 -1,714 Descending Jacksonville Center
Sun 07:06:23 PM 28.9269 -82.2806 175° South 375 432 16,000 -1,455 Descending Jacksonville Center
Sun 07:08:41 PM 28.7167 -82.2500 173° South 324 373 13,000 -1,265 Descending Tampa TRACON
Sun 07:09:47 PM 28.6167 -82.2500 180° South 313 360 11,700 -1,333 Descending Tampa TRACON
Sun 07:10:47 PM 28.5333 -82.2500 180° South 315 362 10,200 -850 Descending Tampa TRACON
Sun 07:11:47 PM 28.4500 -82.2833 199° South 294 338 10,000 -100 Descending Tampa TRACON
Sun 07:12:47 PM 28.3667 -82.3000 190° South 293 337 10,000 -550 Level Tampa TRACON
Sun 07:13:47 PM 28.2833 -82.3333 199° South 300 345 8,900 -1,300 Descending Tampa TRACON
Sun 07:14:47 PM 28.2000 -82.3500 190° South 303 349 7,400 -1,500 Descending Tampa TRACON
Sun 07:15:47 PM 28.1333 -82.3833 204° Southwest 282 325 5,900 -1,263 Descending Tampa TRACON
Sun 07:16:41 PM 28.0667 -82.4000 192° South 276 318 5,000 -474 Descending Tampa TRACON
Sun 07:17:41 PM 27.9833 -82.4167 190° South 278 320 5,000 -400 Level Tampa TRACON
Sun 07:18:41 PM 27.9167 -82.4333 192° South 261 300 4,200 -1,041 Descending Tampa TRACON
Sun 07:19:42 PM 27.8500 -82.4667 204° Southwest 254 292 2,900 -595 Descending Tampa TRACON
Sun 07:20:42 PM 27.7833 -82.4833 192° South 225 259 3,000 50 Climbing Tampa TRACON
Sun 07:21:42 PM 27.7667 -82.5500 254° West 222 255 3,000 -100 Level Tampa TRACON
Sun 07:22:42 PM 27.8167 -82.5667 344° North 215 247 2,800 -715 Descending Tampa TRACON
Sun 07:24:13 PM 27.9008 -82.5439 13° North 199 229 1,200 -980 Descending Miami Center
Sun 07:25:15 PM 27.9450 -82.5428 North 173 199 300 -488 Descending Miami Center
Sun 07:26:16 PM 27.9897 -82.5417 North 169 194 200 -98 Descending Miami Center

Login

Don't have an account? Register now (free) for customized features, flight alerts, and more!